sensor_id;sensor_type;location;lat;lon;timestamp;pressure;altitude;pressure_sealevel;temperature;humidity
3260;BME280;68938;48.150;14.004;2024-01-30T00:01:06;99656.59;;;1.33;65.32
3260;BME280;68938;48.150;14.004;2024-01-30T00:03:33;99644.56;;;1.26;65.27
3260;BME280;68938;48.150;14.004;2024-01-30T00:06:00;99666.69;;;1.33;65.06
3260;BME280;68938;48.150;14.004;2024-01-30T00:08:27;99663.22;;;1.30;64.97
3260;BME280;68938;48.150;14.004;2024-01-30T00:10:54;99661.41;;;1.26;64.93
3260;BME280;68938;48.150;14.004;2024-01-30T00:13:21;99658.84;;;1.24;65.11
3260;BME280;68938;48.150;14.004;2024-01-30T00:15:48;99666.47;;;1.26;64.99
3260;BME280;68938;48.150;14.004;2024-01-30T00:18:15;99667.25;;;1.23;65.03
3260;BME280;68938;48.150;14.004;2024-01-30T00:20:42;99665.56;;;1.24;64.89
3260;BME280;68938;48.150;14.004;2024-01-30T00:23:09;99658.75;;;1.21;64.64
3260;BME280;68938;48.150;14.004;2024-01-30T00:25:36;99650.94;;;1.13;64.88
3260;BME280;68938;48.150;14.004;2024-01-30T00:28:03;99668.66;;;1.15;64.61
3260;BME280;68938;48.150;14.004;2024-01-30T00:30:30;99667.66;;;1.10;64.81
3260;BME280;68938;48.150;14.004;2024-01-30T00:32:57;99667.66;;;1.10;64.58
3260;BME280;68938;48.150;14.004;2024-01-30T00:35:24;99667.50;;;1.05;64.06
3260;BME280;68938;48.150;14.004;2024-01-30T00:37:51;99667.44;;;1.04;64.39
3260;BME280;68938;48.150;14.004;2024-01-30T00:40:17;99663.91;;;0.99;64.58
3260;BME280;68938;48.150;14.004;2024-01-30T00:42:45;99669.91;;;1.02;64.53
3260;BME280;68938;48.150;14.004;2024-01-30T00:45:13;99672.44;;;1.02;64.55
3260;BME280;68938;48.150;14.004;2024-01-30T00:47:42;99669.88;;;1.01;64.29
3260;BME280;68938;48.150;14.004;2024-01-30T00:50:09;99650.31;;;0.95;64.48
3260;BME280;68938;48.150;14.004;2024-01-30T00:52:36;99649.56;;;0.98;64.29
3260;BME280;68938;48.150;14.004;2024-01-30T00:55:04;99651.97;;;0.94;64.36
3260;BME280;68938;48.150;14.004;2024-01-30T00:57:31;99650.31;;;0.95;64.36
3260;BME280;68938;48.150;14.004;2024-01-30T00:59:58;99648.50;;;0.91;64.37
3260;BME280;68938;48.150;14.004;2024-01-30T01:02:25;99649.31;;;0.90;64.65
3260;BME280;68938;48.150;14.004;2024-01-30T01:04:52;99647.75;;;0.93;64.32
3260;BME280;68938;48.150;14.004;2024-01-30T01:07:19;99654.47;;;0.93;64.38
3260;BME280;68938;48.150;14.004;2024-01-30T01:09:46;99648.47;;;0.89;64.71
3260;BME280;68938;48.150;14.004;2024-01-30T01:12:13;99645.03;;;0.89;64.55
3260;BME280;68938;48.150;14.004;2024-01-30T01:14:40;99642.53;;;0.89;64.52
3260;BME280;68938;48.150;14.004;2024-01-30T01:17:07;99644.97;;;0.86;64.42
3260;BME280;68938;48.150;14.004;2024-01-30T01:19:34;99643.34;;;0.88;64.52
3260;BME280;68938;48.150;14.004;2024-01-30T01:22:01;99641.66;;;0.88;64.47
3260;BME280;68938;48.150;14.004;2024-01-30T01:24:33;99639.09;;;0.87;64.39
3260;BME280;68938;48.150;14.004;2024-01-30T01:26:59;99645.03;;;0.89;64.50
3260;BME280;68938;48.150;14.004;2024-01-30T01:29:26;99638.28;;;0.88;64.31
3260;BME280;68938;48.150;14.004;2024-01-30T01:31:53;99642.50;;;0.87;64.26
3260;BME280;68938;48.150;14.004;2024-01-30T01:34:22;99645.72;;;0.83;64.45
3260;BME280;68938;48.150;14.004;2024-01-30T01:36:50;99646.47;;;0.81;64.36
3260;BME280;68938;48.150;14.004;2024-01-30T01:39:17;99646.44;;;0.79;64.31
3260;BME280;68938;48.150;14.004;2024-01-30T01:41:44;99629.19;;;0.67;64.43
3260;BME280;68938;48.150;14.004;2024-01-30T01:44:11;99637.59;;;0.66;64.48
3260;BME280;68938;48.150;14.004;2024-01-30T01:46:38;99643.47;;;0.67;65.10
3260;BME280;68938;48.150;14.004;2024-01-30T01:49:06;99633.94;;;0.58;64.47
3260;BME280;68938;48.150;14.004;2024-01-30T01:51:35;99639.06;;;0.61;64.50
3260;BME280;68938;48.150;14.004;2024-01-30T01:54:04;99631.25;;;0.54;64.54
3260;BME280;68938;48.150;14.004;2024-01-30T01:56:33;99636.41;;;0.57;64.56
3260;BME280;68938;48.150;14.004;2024-01-30T01:59:05;99633.13;;;0.59;64.52
3260;BME280;68938;48.150;14.004;2024-01-30T02:01:34;99631.13;;;0.51;64.30
3260;BME280;68938;48.150;14.004;2024-01-30T02:04:03;99627.53;;;0.44;64.25
3260;BME280;68938;48.150;14.004;2024-01-30T02:06:32;99634.47;;;0.50;64.46
3260;BME280;68938;48.150;14.004;2024-01-30T02:08:59;99632.66;;;0.45;64.15
3260;BME280;68938;48.150;14.004;2024-01-30T02:11:26;99630.03;;;0.42;64.10
3260;BME280;68938;48.150;14.004;2024-01-30T02:13:53;99635.00;;;0.41;64.54
3260;BME280;68938;48.150;14.004;2024-01-30T02:16:20;99635.88;;;0.41;64.11
3260;BME280;68938;48.150;14.004;2024-01-30T02:18:47;99634.16;;;0.40;63.97
3260;BME280;68938;48.150;14.004;2024-01-30T02:21:18;99625.69;;;0.38;63.85
3260;BME280;68938;48.150;14.004;2024-01-30T02:23:49;99640.06;;;0.41;64.25
3260;BME280;68938;48.150;14.004;2024-01-30T02:26:17;99635.00;;;0.41;63.96
3260;BME280;68938;48.150;14.004;2024-01-30T02:28:44;99636.69;;;0.40;64.56
3260;BME280;68938;48.150;14.004;2024-01-30T02:31:11;99636.47;;;0.34;64.16
3260;BME280;68938;48.150;14.004;2024-01-30T02:33:38;99629.69;;;0.33;64.06
3260;BME280;68938;48.150;14.004;2024-01-30T02:36:05;99624.53;;;0.30;64.45
3260;BME280;68938;48.150;14.004;2024-01-30T02:38:32;99637.28;;;0.33;64.10
3260;BME280;68938;48.150;14.004;2024-01-30T02:40:59;99643.13;;;0.32;64.52
3260;BME280;68938;48.150;14.004;2024-01-30T02:43:26;99643.94;;;0.31;65.03
3260;BME280;68938;48.150;14.004;2024-01-30T02:45:53;99642.16;;;0.29;64.91
3260;BME280;68938;48.150;14.004;2024-01-30T02:48:19;99644.72;;;0.30;65.18
3260;BME280;68938;48.150;14.004;2024-01-30T02:50:46;99653.44;;;0.38;65.08
3260;BME280;68938;48.150;14.004;2024-01-30T02:53:13;99637.97;;;0.29;65.23
3260;BME280;68938;48.150;14.004;2024-01-30T02:55:40;99655.13;;;0.38;65.50
3260;BME280;68938;48.150;14.004;2024-01-30T02:58:07;99658.66;;;0.43;65.38
3260;BME280;68938;48.150;14.004;2024-01-30T03:00:34;99652.91;;;0.47;65.59
3260;BME280;68938;48.150;14.004;2024-01-30T03:03:01;99641.19;;;0.49;65.67
3260;BME280;68938;48.150;14.004;2024-01-30T03:05:28;99647.25;;;0.54;65.80
3260;BME280;68938;48.150;14.004;2024-01-30T03:07:55;99644.03;;;0.58;66.13
3260;BME280;68938;48.150;14.004;2024-01-30T03:10:22;99641.56;;;0.60;66.02
3260;BME280;68938;48.150;14.004;2024-01-30T03:12:49;99648.66;;;0.70;66.55
3260;BME280;68938;48.150;14.004;2024-01-30T03:15:16;99647.06;;;0.74;66.68
3260;BME280;68938;48.150;14.004;2024-01-30T03:17:43;99639.72;;;0.80;66.72
3260;BME280;68938;48.150;14.004;2024-01-30T03:20:10;99641.50;;;0.82;66.79
3260;BME280;68938;48.150;14.004;2024-01-30T03:22:37;99640.66;;;0.83;67.02
3260;BME280;68938;48.150;14.004;2024-01-30T03:25:05;99645.75;;;0.85;67.45
3260;BME280;68938;48.150;14.004;2024-01-30T03:27:32;99647.53;;;0.87;67.21
3260;BME280;68938;48.150;14.004;2024-01-30T03:29:59;99639.94;;;0.86;67.10
3260;BME280;68938;48.150;14.004;2024-01-30T03:32:25;99633.84;;;0.81;66.97
3260;BME280;68938;48.150;14.004;2024-01-30T03:34:53;99631.88;;;0.72;66.95
3260;BME280;68938;48.150;14.004;2024-01-30T03:37:20;99640.34;;;0.74;68.50
3260;BME280;68938;48.150;14.004;2024-01-30T03:39:48;99640.25;;;0.71;68.59
3260;BME280;68938;48.150;14.004;2024-01-30T03:42:14;99644.50;;;0.72;68.34
3260;BME280;68938;48.150;14.004;2024-01-30T03:44:42;99640.25;;;0.71;68.77
3260;BME280;68938;48.150;14.004;2024-01-30T03:47:09;99642.06;;;0.75;68.28
3260;BME280;68938;48.150;14.004;2024-01-30T03:49:36;99647.28;;;0.80;68.11
3260;BME280;68938;48.150;14.004;2024-01-30T03:52:03;99644.88;;;0.83;68.34
3260;BME280;68938;48.150;14.004;2024-01-30T03:54:30;99646.91;;;0.93;68.02
3260;BME280;68938;48.150;14.004;2024-01-30T03:56:57;99643.00;;;1.03;68.02
3260;BME280;68938;48.150;14.004;2024-01-30T03:59:24;99654.13;;;1.09;67.90
3260;BME280;68938;48.150;14.004;2024-01-30T04:01:51;99651.03;;;1.16;68.03
3260;BME280;68938;48.150;14.004;2024-01-30T04:04:18;99655.38;;;1.21;67.85
3260;BME280;68938;48.150;14.004;2024-01-30T04:06:46;99661.41;;;1.26;68.06
3260;BME280;68938;48.150;14.004;2024-01-30T04:09:13;99656.47;;;1.29;68.22
3260;BME280;68938;48.150;14.004;2024-01-30T04:11:40;99658.34;;;1.34;68.17
3260;BME280;68938;48.150;14.004;2024-01-30T04:14:08;99658.44;;;1.37;67.99
3260;BME280;68938;48.150;14.004;2024-01-30T04:16:35;99648.44;;;1.42;68.12
3260;BME280;68938;48.150;14.004;2024-01-30T04:19:02;99647.78;;;1.48;68.14
3260;BME280;68938;48.150;14.004;2024-01-30T04:21:29;99651.31;;;1.53;68.40
3260;BME280;68938;48.150;14.004;2024-01-30T04:23:56;99650.56;;;1.57;68.28
3260;BME280;68938;48.150;14.004;2024-01-30T04:26:24;99652.44;;;1.62;68.61
3260;BME280;68938;48.150;14.004;2024-01-30T04:28:51;99656.78;;;1.66;68.72
3260;BME280;68938;48.150;14.004;2024-01-30T04:31:18;99652.66;;;1.70;68.66
3260;BME280;68938;48.150;14.004;2024-01-30T04:33:45;99641.91;;;1.77;68.88
3260;BME280;68938;48.150;14.004;2024-01-30T04:36:12;99642.06;;;1.82;69.15
3260;BME280;68938;48.150;14.004;2024-01-30T04:38:39;99644.69;;;1.85;69.33
3260;BME280;68938;48.150;14.004;2024-01-30T04:41:06;99647.81;;;1.76;70.05
3260;BME280;68938;48.150;14.004;2024-01-30T04:43:34;99656.41;;;1.81;69.74
3260;BME280;68938;48.150;14.004;2024-01-30T04:46:01;99651.41;;;1.84;69.50
3260;BME280;68938;48.150;14.004;2024-01-30T04:48:28;99658.31;;;1.90;69.33
3260;BME280;68938;48.150;14.004;2024-01-30T04:50:55;99650.00;;;1.94;69.15
3260;BME280;68938;48.150;14.004;2024-01-30T04:53:22;99651.81;;;1.98;69.07
3260;BME280;68938;48.150;14.004;2024-01-30T04:55:49;99656.97;;;2.01;69.16
3260;BME280;68938;48.150;14.004;2024-01-30T04:58:15;99655.31;;;2.02;69.16
3260;BME280;68938;48.150;14.004;2024-01-30T05:00:43;99662.09;;;2.03;69.34
3260;BME280;68938;48.150;14.004;2024-01-30T05:03:10;99655.47;;;2.08;69.19
3260;BME280;68938;48.150;14.004;2024-01-30T05:05:37;99653.00;;;2.09;69.36
3260;BME280;68938;48.150;14.004;2024-01-30T05:08:04;99659.81;;;2.12;69.49
3260;BME280;68938;48.150;14.004;2024-01-30T05:10:31;99664.09;;;2.14;69.35
3260;BME280;68938;48.150;14.004;2024-01-30T05:12:58;99663.31;;;2.17;69.38
3260;BME280;68938;48.150;14.004;2024-01-30T05:15:25;99659.97;;;2.18;69.40
3260;BME280;68938;48.150;14.004;2024-01-30T05:17:52;99660.78;;;2.17;69.36
3260;BME280;68938;48.150;14.004;2024-01-30T05:20:19;99668.28;;;2.12;69.43
3260;BME280;68938;48.150;14.004;2024-01-30T05:22:46;99674.28;;;2.16;69.42
3260;BME280;68938;48.150;14.004;2024-01-30T05:25:13;99675.25;;;2.21;69.49
3260;BME280;68938;48.150;14.004;2024-01-30T05:27:40;99670.28;;;2.24;69.59
3260;BME280;68938;48.150;14.004;2024-01-30T05:30:08;99660.03;;;2.20;69.74
3260;BME280;68938;48.150;14.004;2024-01-30T05:32:35;99682.28;;;2.31;69.44
3260;BME280;68938;48.150;14.004;2024-01-30T05:35:02;99678.88;;;2.29;69.46
3260;BME280;68938;48.150;14.004;2024-01-30T05:37:29;99674.78;;;2.34;69.52
3260;BME280;68938;48.150;14.004;2024-01-30T05:39:56;99673.06;;;2.33;69.72
3260;BME280;68938;48.150;14.004;2024-01-30T05:42:23;99673.16;;;2.36;70.00
3260;BME280;68938;48.150;14.004;2024-01-30T05:44:50;99679.97;;;2.39;69.78
3260;BME280;68938;48.150;14.004;2024-01-30T05:47:17;99670.63;;;2.36;70.18
3260;BME280;68938;48.150;14.004;2024-01-30T05:49:44;99681.09;;;2.49;70.10
3260;BME280;68938;48.150;14.004;2024-01-30T05:52:11;99685.47;;;2.54;70.17
3260;BME280;68938;48.150;14.004;2024-01-30T05:54:38;99679.66;;;2.58;70.02
3260;BME280;68938;48.150;14.004;2024-01-30T05:57:05;99694.09;;;2.61;69.98
3260;BME280;68938;48.150;14.004;2024-01-30T05:59:32;99698.41;;;2.65;69.93
3260;BME280;68938;48.150;14.004;2024-01-30T06:01:59;99689.91;;;2.63;69.52
3260;BME280;68938;48.150;14.004;2024-01-30T06:04:26;99694.25;;;2.67;70.10
3260;BME280;68938;48.150;14.004;2024-01-30T06:06:53;99689.22;;;2.69;69.95
3260;BME280;68938;48.150;14.004;2024-01-30T06:09:20;99696.78;;;2.67;69.72
3260;BME280;68938;48.150;14.004;2024-01-30T06:11:47;99697.66;;;2.68;69.55
3260;BME280;68938;48.150;14.004;2024-01-30T06:14:14;99702.66;;;2.66;69.59
3260;BME280;68938;48.150;14.004;2024-01-30T06:16:41;99699.25;;;2.64;69.21
3260;BME280;68938;48.150;14.004;2024-01-30T06:19:08;99700.84;;;2.60;68.92
3260;BME280;68938;48.150;14.004;2024-01-30T06:21:35;99688.81;;;2.53;68.75
3260;BME280;68938;48.150;14.004;2024-01-30T06:24:02;99702.53;;;2.61;68.40
3260;BME280;68938;48.150;14.004;2024-01-30T06:26:29;99697.47;;;2.61;68.66
3260;BME280;68938;48.150;14.004;2024-01-30T06:28:56;99685.50;;;2.56;68.95
3260;BME280;68938;48.150;14.004;2024-01-30T06:31:23;99700.19;;;2.68;68.88
3260;BME280;68938;48.150;14.004;2024-01-30T06:33:50;99694.41;;;2.73;69.04
3260;BME280;68938;48.150;14.004;2024-01-30T06:36:17;99692.75;;;2.74;69.11
3260;BME280;68938;48.150;14.004;2024-01-30T06:38:44;99691.88;;;2.73;69.04
3260;BME280;68938;48.150;14.004;2024-01-30T06:41:11;99684.34;;;2.76;69.04
3260;BME280;68938;48.150;14.004;2024-01-30T06:43:38;99687.88;;;2.81;69.08
3260;BME280;68938;48.150;14.004;2024-01-30T06:46:05;99692.97;;;2.83;69.00
3260;BME280;68938;48.150;14.004;2024-01-30T06:48:32;99697.16;;;2.81;69.29
3260;BME280;68938;48.150;14.004;2024-01-30T06:50:59;99697.19;;;2.82;68.94
3260;BME280;68938;48.150;14.004;2024-01-30T06:53:26;99697.19;;;2.82;69.19
3260;BME280;68938;48.150;14.004;2024-01-30T06:55:53;99703.19;;;2.86;69.13
3260;BME280;68938;48.150;14.004;2024-01-30T06:58:20;99701.50;;;2.87;69.43
3260;BME280;68938;48.150;14.004;2024-01-30T07:00:47;99704.03;;;2.87;69.38
3260;BME280;68938;48.150;14.004;2024-01-30T07:03:14;99706.66;;;2.90;69.72
3260;BME280;68938;48.150;14.004;2024-01-30T07:05:41;99710.09;;;2.92;69.63
3260;BME280;68938;48.150;14.004;2024-01-30T07:08:08;99711.72;;;2.90;69.74
3260;BME280;68938;48.150;14.004;2024-01-30T07:10:34;99699.88;;;2.89;69.78
3260;BME280;68938;48.150;14.004;2024-01-30T07:13:02;99703.97;;;2.83;69.90
3260;BME280;68938;48.150;14.004;2024-01-30T07:15:29;99709.75;;;2.78;70.06
3260;BME280;68938;48.150;14.004;2024-01-30T07:17:56;99715.59;;;2.77;69.99
3260;BME280;68938;48.150;14.004;2024-01-30T07:20:23;99717.28;;;2.76;69.86
3260;BME280;68938;48.150;14.004;2024-01-30T07:22:50;99714.66;;;2.72;70.07
3260;BME280;68938;48.150;14.004;2024-01-30T07:25:16;99725.69;;;2.74;69.94
3260;BME280;68938;48.150;14.004;2024-01-30T07:27:43;99718.00;;;2.71;69.81
3260;BME280;68938;48.150;14.004;2024-01-30T07:30:11;99721.41;;;2.73;69.91
3260;BME280;68938;48.150;14.004;2024-01-30T07:32:38;99729.09;;;2.76;69.85
3260;BME280;68938;48.150;14.004;2024-01-30T07:35:05;99732.50;;;2.76;69.81
3260;BME280;68938;48.150;14.004;2024-01-30T07:37:35;99729.06;;;2.74;70.06
3260;BME280;68938;48.150;14.004;2024-01-30T07:40:03;99730.78;;;2.75;70.19
3260;BME280;68938;48.150;14.004;2024-01-30T07:42:31;99732.19;;;2.66;70.50
3260;BME280;68938;48.150;14.004;2024-01-30T07:44:58;99741.56;;;2.68;70.66
3260;BME280;68938;48.150;14.004;2024-01-30T07:47:24;99730.59;;;2.69;70.51
3260;BME280;68938;48.150;14.004;2024-01-30T07:49:52;99738.28;;;2.72;70.80
3260;BME280;68938;48.150;14.004;2024-01-30T07:52:19;99745.97;;;2.74;70.77
3260;BME280;68938;48.150;14.004;2024-01-30T07:54:46;99736.63;;;2.73;71.10
3260;BME280;68938;48.150;14.004;2024-01-30T07:57:13;99737.47;;;2.73;70.90
3260;BME280;68938;48.150;14.004;2024-01-30T07:59:42;99746.81;;;2.74;70.82
3260;BME280;68938;48.150;14.004;2024-01-30T08:02:13;99744.38;;;2.77;71.13
3260;BME280;68938;48.150;14.004;2024-01-30T08:04:41;99753.88;;;2.86;70.81
3260;BME280;68938;48.150;14.004;2024-01-30T08:07:08;99746.44;;;2.92;70.89
3260;BME280;68938;48.150;14.004;2024-01-30T08:09:36;99742.34;;;2.97;70.79
3260;BME280;68938;48.150;14.004;2024-01-30T08:12:03;99748.13;;;2.92;70.47
3260;BME280;68938;48.150;14.004;2024-01-30T08:14:30;99751.53;;;2.94;70.53
3260;BME280;68938;48.150;14.004;2024-01-30T08:16:57;99753.28;;;2.95;70.89
3260;BME280;68938;48.150;14.004;2024-01-30T08:19:24;99757.72;;;3.03;70.98
3260;BME280;68938;48.150;14.004;2024-01-30T08:21:51;99752.81;;;3.09;70.71
3260;BME280;68938;48.150;14.004;2024-01-30T08:24:18;99752.66;;;3.03;70.42
3260;BME280;68938;48.150;14.004;2024-01-30T08:26:45;99754.31;;;3.01;70.57
3260;BME280;68938;48.150;14.004;2024-01-30T08:29:12;99766.28;;;2.77;71.20
3260;BME280;68938;48.150;14.004;2024-01-30T08:31:39;99766.25;;;2.75;71.14
3260;BME280;68938;48.150;14.004;2024-01-30T08:34:06;99764.88;;;2.87;70.54
3260;BME280;68938;48.150;14.004;2024-01-30T08:36:33;99762.38;;;2.88;70.63
3260;BME280;68938;48.150;14.004;2024-01-30T08:39:00;99752.19;;;2.87;71.03
3260;BME280;68938;48.150;14.004;2024-01-30T08:41:31;99765.22;;;3.00;71.00
3260;BME280;68938;48.150;14.004;2024-01-30T08:43:58;99765.28;;;3.02;70.90
3260;BME280;68938;48.150;14.004;2024-01-30T08:46:25;99757.06;;;3.11;70.71
3260;BME280;68938;48.150;14.004;2024-01-30T08:48:52;99758.56;;;3.04;70.68
3260;BME280;68938;48.150;14.004;2024-01-30T08:51:19;99764.53;;;3.06;70.74
3260;BME280;68938;48.150;14.004;2024-01-30T08:53:46;99759.94;;;2.91;70.60
3260;BME280;68938;48.150;14.004;2024-01-30T08:56:13;99764.28;;;2.97;70.89
3260;BME280;68938;48.150;14.004;2024-01-30T08:58:40;99763.63;;;3.04;70.85
3260;BME280;68938;48.150;14.004;2024-01-30T09:01:07;99767.09;;;3.06;70.71
3260;BME280;68938;48.150;14.004;2024-01-30T09:03:34;99761.16;;;3.05;70.56
3260;BME280;68938;48.150;14.004;2024-01-30T09:06:01;99767.16;;;3.09;70.49
3260;BME280;68938;48.150;14.004;2024-01-30T09:08:28;99762.28;;;3.17;70.46
3260;BME280;68938;48.150;14.004;2024-01-30T09:10:55;99761.47;;;3.18;70.38
3260;BME280;68938;48.150;14.004;2024-01-30T09:13:22;99766.50;;;3.16;70.30
3260;BME280;68938;48.150;14.004;2024-01-30T09:15:49;99775.25;;;3.27;70.19
3260;BME280;68938;48.150;14.004;2024-01-30T09:18:16;99768.72;;;3.36;70.18
3260;BME280;68938;48.150;14.004;2024-01-30T09:20:43;99767.91;;;3.38;70.33
3260;BME280;68938;48.150;14.004;2024-01-30T09:23:10;99772.38;;;3.48;70.26
3260;BME280;68938;48.150;14.004;2024-01-30T09:25:37;99774.72;;;3.39;69.61
3260;BME280;68938;48.150;14.004;2024-01-30T09:28:05;99772.28;;;3.44;70.01
3260;BME280;68938;48.150;14.004;2024-01-30T09:30:32;99773.28;;;3.49;69.89
3260;BME280;68938;48.150;14.004;2024-01-30T09:32:59;99767.38;;;3.50;69.51
3260;BME280;68938;48.150;14.004;2024-01-30T09:35:26;99772.38;;;3.47;69.32
3260;BME280;68938;48.150;14.004;2024-01-30T09:37:53;99770.75;;;3.50;69.26
3260;BME280;68938;48.150;14.004;2024-01-30T09:40:20;99772.47;;;3.51;69.38
3260;BME280;68938;48.150;14.004;2024-01-30T09:42:47;99777.59;;;3.53;69.74
3260;BME280;68938;48.150;14.004;2024-01-30T09:45:24;99774.22;;;3.52;69.27
3260;BME280;68938;48.150;14.004;2024-01-30T09:47:52;99773.31;;;3.52;69.51
3260;BME280;68938;48.150;14.004;2024-01-30T09:50:20;99771.69;;;3.54;69.23
3260;BME280;68938;48.150;14.004;2024-01-30T09:52:47;99766.78;;;3.60;69.27
3260;BME280;68938;48.150;14.004;2024-01-30T09:55:14;99768.56;;;3.64;69.71
3260;BME280;68938;48.150;14.004;2024-01-30T09:57:42;99773.06;;;3.76;69.24
3260;BME280;68938;48.150;14.004;2024-01-30T10:00:09;99771.19;;;3.67;69.45
3260;BME280;68938;48.150;14.004;2024-01-30T10:02:38;99777.88;;;3.65;69.66
3260;BME280;68938;48.150;14.004;2024-01-30T10:05:05;99776.09;;;3.61;68.84
3260;BME280;68938;48.150;14.004;2024-01-30T10:07:33;99777.41;;;3.45;69.74
3260;BME280;68938;48.150;14.004;2024-01-30T10:10:00;99767.13;;;3.41;69.76
3260;BME280;68938;48.150;14.004;2024-01-30T10:12:28;99756.13;;;3.40;69.58
3260;BME280;68938;48.150;14.004;2024-01-30T10:14:56;99769.94;;;3.51;68.99
3260;BME280;68938;48.150;14.004;2024-01-30T10:17:25;99764.06;;;3.52;69.20
3260;BME280;68938;48.150;14.004;2024-01-30T10:19:59;99759.84;;;3.54;68.83
3260;BME280;68938;48.150;14.004;2024-01-30T10:22:28;99769.41;;;3.65;69.12
3260;BME280;68938;48.150;14.004;2024-01-30T10:24:55;99756.78;;;3.66;69.32
3260;BME280;68938;48.150;14.004;2024-01-30T10:27:26;99744.91;;;3.65;69.24
3260;BME280;68938;48.150;14.004;2024-01-30T10:29:53;99759.66;;;3.80;69.27
3260;BME280;68938;48.150;14.004;2024-01-30T10:32:21;99756.38;;;3.86;68.87
3260;BME280;68938;48.150;14.004;2024-01-30T10:34:48;99752.28;;;3.92;69.09
3260;BME280;68938;48.150;14.004;2024-01-30T10:37:16;99742.59;;;3.76;69.21
3260;BME280;68938;48.150;14.004;2024-01-30T10:39:45;99747.34;;;3.62;70.29
3260;BME280;68938;48.150;14.004;2024-01-30T10:42:17;99743.50;;;3.78;69.70
3260;BME280;68938;48.150;14.004;2024-01-30T10:45:07;99734.22;;;3.78;69.92
3260;BME280;68938;48.150;14.004;2024-01-30T10:47:36;99731.56;;;3.74;70.20
3260;BME280;68938;48.150;14.004;2024-01-30T10:50:03;99737.69;;;3.82;69.64
3260;BME280;68938;48.150;14.004;2024-01-30T10:52:31;99724.13;;;3.80;69.42
3260;BME280;68938;48.150;14.004;2024-01-30T10:54:59;99736.00;;;3.83;69.17
3260;BME280;68938;48.150;14.004;2024-01-30T10:57:27;99730.06;;;3.82;69.54
3260;BME280;68938;48.150;14.004;2024-01-30T10:59:59;99726.88;;;3.91;69.65
3260;BME280;68938;48.150;14.004;2024-01-30T11:02:27;99719.34;;;3.94;69.42
3260;BME280;68938;48.150;14.004;2024-01-30T11:04:56;99719.16;;;3.86;69.17
3260;BME280;68938;48.150;14.004;2024-01-30T11:07:27;99717.59;;;3.93;69.40
3260;BME280;68938;48.150;14.004;2024-01-30T11:12:26;99723.00;;;4.07;69.27
3260;BME280;68938;48.150;14.004;2024-01-30T11:15:07;99717.34;;;4.20;69.59
3260;BME280;68938;48.150;14.004;2024-01-30T11:20:20;99701.41;;;4.25;69.22
3260;BME280;68938;48.150;14.004;2024-01-30T11:22:49;99704.00;;;4.28;68.80
3260;BME280;68938;48.150;14.004;2024-01-30T11:25:20;99708.78;;;4.15;69.31
3260;BME280;68938;48.150;14.004;2024-01-30T11:27:57;99709.88;;;4.26;69.10
3260;BME280;68938;48.150;14.004;2024-01-30T11:30:29;99704.59;;;4.17;68.97
3260;BME280;68938;48.150;14.004;2024-01-30T11:35:42;99709.03;;;4.27;69.38
3260;BME280;68938;48.150;14.004;2024-01-30T11:38:11;99692.16;;;4.29;69.33
3260;BME280;68938;48.150;14.004;2024-01-30T11:40:40;99700.88;;;4.42;68.99
3260;BME280;68938;48.150;14.004;2024-01-30T11:43:08;99698.38;;;4.43;68.69
3260;BME280;68938;48.150;14.004;2024-01-30T11:45:36;99694.19;;;4.47;68.97
3260;BME280;68938;48.150;14.004;2024-01-30T11:48:04;99693.22;;;4.40;68.44
3260;BME280;68938;48.150;14.004;2024-01-30T11:50:34;99688.34;;;4.49;68.20
3260;BME280;68938;48.150;14.004;2024-01-30T11:53:02;99684.94;;;4.49;68.44
3260;BME280;68938;48.150;14.004;2024-01-30T11:55:29;99673.81;;;4.44;68.27
3260;BME280;68938;48.150;14.004;2024-01-30T11:58:00;99680.44;;;4.36;68.41
3260;BME280;68938;48.150;14.004;2024-01-30T12:00:28;99675.56;;;4.45;68.46
3260;BME280;68938;48.150;14.004;2024-01-30T12:02:55;99674.63;;;4.41;68.18
3260;BME280;68938;48.150;14.004;2024-01-30T12:05:24;99671.25;;;4.42;68.59
3260;BME280;68938;48.150;14.004;2024-01-30T12:07:51;99671.31;;;4.45;68.20
3260;BME280;68938;48.150;14.004;2024-01-30T12:10:18;99668.00;;;4.48;68.31
3260;BME280;68938;48.150;14.004;2024-01-30T12:12:47;99657.78;;;4.46;67.88
3260;BME280;68938;48.150;14.004;2024-01-30T12:15:16;99675.00;;;4.61;68.26
3260;BME280;68938;48.150;14.004;2024-01-30T12:17:44;99667.47;;;4.66;68.44
3260;BME280;68938;48.150;14.004;2024-01-30T12:20:17;99673.66;;;4.80;68.68
3260;BME280;68938;48.150;14.004;2024-01-30T12:22:47;99665.25;;;4.83;67.84
3260;BME280;68938;48.150;14.004;2024-01-30T12:25:16;99650.06;;;4.87;68.20
3260;BME280;68938;48.150;14.004;2024-01-30T12:27:47;99656.66;;;4.78;67.86
3260;BME280;68938;48.150;14.004;2024-01-30T12:30:15;99659.25;;;4.81;67.45
3260;BME280;68938;48.150;14.004;2024-01-30T12:32:44;99654.88;;;4.72;66.90
3260;BME280;68938;48.150;14.004;2024-01-30T12:35:13;99653.28;;;4.77;67.11
3260;BME280;68938;48.150;14.004;2024-01-30T12:37:43;99646.50;;;4.78;67.19
3260;BME280;68938;48.150;14.004;2024-01-30T12:40:13;99644.00;;;4.81;67.17
3260;BME280;68938;48.150;14.004;2024-01-30T12:42:41;99645.66;;;4.77;67.62
3260;BME280;68938;48.150;14.004;2024-01-30T12:45:09;99650.59;;;4.71;67.76
3260;BME280;68938;48.150;14.004;2024-01-30T12:47:37;99648.22;;;4.79;67.80
3260;BME280;68938;48.150;14.004;2024-01-30T12:50:04;99652.53;;;4.83;67.18
3260;BME280;68938;48.150;14.004;2024-01-30T12:52:31;99651.69;;;4.84;67.38
3260;BME280;68938;48.150;14.004;2024-01-30T12:54:58;99644.91;;;4.84;67.16
3260;BME280;68938;48.150;14.004;2024-01-30T12:57:25;99646.63;;;4.85;67.27
3260;BME280;68938;48.150;14.004;2024-01-30T12:59:52;99654.13;;;4.78;67.38
3260;BME280;68938;48.150;14.004;2024-01-30T13:02:19;99650.47;;;4.62;67.46
3260;BME280;68938;48.150;14.004;2024-01-30T13:04:47;99641.81;;;4.52;67.72
3260;BME280;68938;48.150;14.004;2024-01-30T13:07:16;99643.50;;;4.53;68.22
3260;BME280;68938;48.150;14.004;2024-01-30T13:09:43;99647.00;;;4.58;67.62
3260;BME280;68938;48.150;14.004;2024-01-30T13:12:10;99637.78;;;4.65;68.01
3260;BME280;68938;48.150;14.004;2024-01-30T13:14:37;99639.63;;;4.72;67.80
3260;BME280;68938;48.150;14.004;2024-01-30T13:17:04;99637.13;;;4.75;67.55
3260;BME280;68938;48.150;14.004;2024-01-30T13:19:30;99631.28;;;4.79;67.50